Moland, Minnesota
Current Conditions -  °F | °C
As of 8:33 AM on Tuesday 21 Oct 2014 (Local Time) from KSYN Reporting Station
Haze Haze  
Wind Chill: 32°   Ceiling: Unl
Heat Index: 32°   Visibility: 2.5mi
Dew Point: 31°   Wind: 0mph
Humidity: 96%   Direction: NA
Pressure: 30.18"   Gusts: NA
Location:  44.2435°N, 92.9583°W
Report Text: KSYN 211333Z AUTO 00000KT 2 1/2SM BR CLR 00/00 A3018 RMK AO2 T00011004
Loading
Personal Weather Stations






























Interactive Weather Map
Tropical Storm Tracking
New forecast layout! Learn more

10-Day Weather Forecast

Advertisements
Track Severe Weather on mobile